createdAt,value
2018-12-16T00:00:36.954Z,13.30
2018-12-16T00:03:13.935Z,15.10
2018-12-16T00:05:49.444Z,14.20
2018-12-16T00:08:22.899Z,15.03
2018-12-16T00:10:57.057Z,14.20
2018-12-16T00:13:30.657Z,14.13
2018-12-16T00:16:04.330Z,15.10
2018-12-16T00:18:39.803Z,16.50
2018-12-16T00:21:13.538Z,16.70
2018-12-16T00:23:47.169Z,15.83
2018-12-16T00:26:20.706Z,14.83
2018-12-16T00:28:54.137Z,14.47
2018-12-16T00:31:27.591Z,14.53
2018-12-16T00:34:01.313Z,15.20
2018-12-16T00:36:35.275Z,16.30
2018-12-16T00:39:09.039Z,14.83
2018-12-16T00:41:42.715Z,16.03
2018-12-16T00:44:16.690Z,15.70
2018-12-16T00:46:50.763Z,16.27
2018-12-16T00:49:24.496Z,14.37
2018-12-16T00:51:58.332Z,15.93
2018-12-16T00:54:31.851Z,16.37
2018-12-16T00:57:05.615Z,16.20
2018-12-16T00:59:40.215Z,14.40
2018-12-16T01:02:19.713Z,15.03
2018-12-16T01:04:53.501Z,15.00
2018-12-16T01:07:27.102Z,15.70
2018-12-16T01:10:00.697Z,15.83
2018-12-16T01:12:34.227Z,15.60
2018-12-16T01:15:09.434Z,16.10
2018-12-16T01:17:44.371Z,16.07
2018-12-16T01:20:18.304Z,15.80
2018-12-16T01:22:51.914Z,16.37
2018-12-16T01:25:25.751Z,16.13
2018-12-16T01:27:59.355Z,16.77
2018-12-16T01:30:33.095Z,17.43
2018-12-16T01:33:07.013Z,15.67
2018-12-16T01:35:40.699Z,16.10
2018-12-16T01:38:14.313Z,17.47
2018-12-16T01:40:47.897Z,15.53
2018-12-16T01:43:21.407Z,16.10
2018-12-16T01:45:55.369Z,17.57
2018-12-16T01:48:28.921Z,16.30
2018-12-16T01:51:02.579Z,17.43
2018-12-16T01:53:36.106Z,16.77
2018-12-16T01:56:10.017Z,17.53
2018-12-16T01:58:43.725Z,17.47
2018-12-16T02:01:17.337Z,16.20
2018-12-16T02:03:50.837Z,17.07
2018-12-16T02:06:24.389Z,18.70
2018-12-16T02:08:57.882Z,17.70
2018-12-16T02:11:31.698Z,19.00
2018-12-16T02:14:05.596Z,18.37
2018-12-16T02:16:39.256Z,18.07
2018-12-16T02:19:13.142Z,17.40
2018-12-16T02:21:46.659Z,17.87
2018-12-16T02:24:20.482Z,18.63
2018-12-16T02:26:54.249Z,17.60
2018-12-16T02:29:27.645Z,18.47
2018-12-16T02:32:01.334Z,18.70
2018-12-16T02:34:35.036Z,17.17
2018-12-16T02:37:08.449Z,18.40
2018-12-16T02:39:41.894Z,20.43
2018-12-16T02:42:15.735Z,18.93
2018-12-16T02:44:49.743Z,18.63
2018-12-16T02:47:23.982Z,17.80
2018-12-16T02:49:57.749Z,19.53
2018-12-16T02:52:31.245Z,17.60
2018-12-16T02:55:04.892Z,17.27
2018-12-16T02:57:38.630Z,18.93
2018-12-16T03:00:12.368Z,17.40
2018-12-16T03:02:47.810Z,18.97
2018-12-16T03:05:21.414Z,16.50
2018-12-16T03:07:55.081Z,18.07
2018-12-16T03:10:28.682Z,18.10
2018-12-16T03:13:02.388Z,17.93
2018-12-16T03:15:36.192Z,18.87
2018-12-16T03:18:09.900Z,19.90
2018-12-16T03:20:43.747Z,18.07
2018-12-16T03:23:17.335Z,18.20
2018-12-16T03:25:50.615Z,18.60
2018-12-16T03:28:24.117Z,17.83
2018-12-16T03:30:57.686Z,20.53
2018-12-16T03:33:31.222Z,19.13
2018-12-16T03:36:05.076Z,20.20
2018-12-16T03:38:38.754Z,20.97
2018-12-16T03:41:12.119Z,20.17
2018-12-16T03:43:45.589Z,20.37
2018-12-16T03:46:18.809Z,18.80
2018-12-16T03:48:52.213Z,20.70
2018-12-16T03:51:25.600Z,20.30
2018-12-16T03:53:59.059Z,20.87
2018-12-16T03:56:32.785Z,19.30
2018-12-16T03:59:15.680Z,20.07
2018-12-16T04:01:54.165Z,19.97
2018-12-16T04:04:27.700Z,20.17
2018-12-16T04:07:01.251Z,19.63
2018-12-16T04:09:34.665Z,20.97
2018-12-16T04:12:08.066Z,20.17
2018-12-16T04:14:41.524Z,19.63
2018-12-16T04:17:15.102Z,21.00
2018-12-16T04:19:48.556Z,19.77
2018-12-16T04:22:21.947Z,19.93
2018-12-16T04:24:55.312Z,18.87
2018-12-16T04:27:28.641Z,19.37
2018-12-16T04:30:02.361Z,21.93
2018-12-16T04:32:35.871Z,19.63
2018-12-16T04:35:09.421Z,19.40
2018-12-16T04:37:42.921Z,17.57
2018-12-16T04:40:16.397Z,18.30
2018-12-16T04:42:49.794Z,19.30
2018-12-16T04:45:23.436Z,18.33
2018-12-16T04:47:56.830Z,20.67
2018-12-16T04:50:30.432Z,21.10
2018-12-16T04:53:04.723Z,19.23
2018-12-16T04:55:38.929Z,19.73
2018-12-16T04:58:12.301Z,20.73
2018-12-16T05:00:45.930Z,19.70
2018-12-16T05:03:19.438Z,19.23
2018-12-16T05:05:53.090Z,20.17
2018-12-16T05:08:26.660Z,20.13
2018-12-16T05:11:00.265Z,19.83
2018-12-16T05:13:33.857Z,20.90
2018-12-16T05:16:07.454Z,18.87
2018-12-16T05:18:40.752Z,19.63
2018-12-16T05:21:14.183Z,19.67
2018-12-16T05:23:47.538Z,21.33
2018-12-16T05:26:20.945Z,19.93
2018-12-16T05:28:54.586Z,18.43
2018-12-16T05:31:28.036Z,20.40
2018-12-16T05:34:01.428Z,21.80
2018-12-16T05:36:35.010Z,20.03
2018-12-16T05:39:08.758Z,20.37
2018-12-16T05:41:42.329Z,20.13
2018-12-16T05:44:15.961Z,20.80
2018-12-16T05:46:49.406Z,21.17
2018-12-16T05:49:22.953Z,20.97
2018-12-16T05:51:56.549Z,19.87
2018-12-16T05:54:30.028Z,20.90
2018-12-16T05:57:03.830Z,21.13
2018-12-16T05:59:37.126Z,20.93
2018-12-16T06:02:10.593Z,20.40
2018-12-16T06:04:44.067Z,19.60
2018-12-16T06:07:17.588Z,22.07
2018-12-16T06:09:51.309Z,20.47
2018-12-16T06:12:24.912Z,19.47
2018-12-16T06:14:58.492Z,20.60
2018-12-16T06:17:31.732Z,19.10
2018-12-16T06:20:05.491Z,19.40
2018-12-16T06:22:38.990Z,19.90
2018-12-16T06:25:12.242Z,20.93
2018-12-16T06:27:45.795Z,16.80
2018-12-16T06:30:20.338Z,22.50
2018-12-16T06:32:53.803Z,19.07
2018-12-16T06:35:27.201Z,20.70
2018-12-16T06:38:00.638Z,19.00
2018-12-16T06:40:34.048Z,18.40
2018-12-16T06:43:07.682Z,20.77
2018-12-16T06:45:41.325Z,19.43
2018-12-16T06:48:14.954Z,20.83
2018-12-16T06:50:55.325Z,20.37
2018-12-16T06:53:29.063Z,19.93
2018-12-16T06:56:06.615Z,21.20
2018-12-16T06:58:38.166Z,21.07
2018-12-16T07:01:11.824Z,21.47
2018-12-16T07:03:45.356Z,20.50
2018-12-16T07:06:19.010Z,21.13
2018-12-16T07:08:52.751Z,21.33
2018-12-16T07:11:26.561Z,21.77
2018-12-16T07:14:00.145Z,20.43
2018-12-16T07:16:33.727Z,21.60
2018-12-16T07:19:07.178Z,20.37
2018-12-16T07:21:40.436Z,22.10
2018-12-16T07:24:13.797Z,22.67
2018-12-16T07:26:47.301Z,21.40
2018-12-16T07:29:20.696Z,21.30
2018-12-16T07:31:54.237Z,20.90
2018-12-16T07:34:27.658Z,20.57
2018-12-16T07:37:01.630Z,21.17
2018-12-16T07:39:35.238Z,20.20
2018-12-16T07:42:08.909Z,20.70
2018-12-16T07:44:42.537Z,21.20
2018-12-16T07:47:16.203Z,22.40
2018-12-16T07:49:52.830Z,21.10
2018-12-16T07:52:26.443Z,22.40
2018-12-16T07:55:00.129Z,23.80
2018-12-16T07:57:33.621Z,21.17
2018-12-16T08:00:09.060Z,21.43
2018-12-16T08:02:42.437Z,20.23
2018-12-16T08:05:15.906Z,21.97
2018-12-16T08:07:49.310Z,21.93
2018-12-16T08:10:22.700Z,21.60
2018-12-16T08:12:56.131Z,21.07
2018-12-16T08:15:29.633Z,20.00
2018-12-16T08:18:04.155Z,24.80
2018-12-16T08:20:37.839Z,21.53
2018-12-16T08:23:11.285Z,22.17
2018-12-16T08:25:44.689Z,23.20
2018-12-16T08:28:18.254Z,24.87
2018-12-16T08:30:51.697Z,23.40
2018-12-16T08:33:25.177Z,22.63
2018-12-16T08:35:58.531Z,23.23
2018-12-16T08:38:32.034Z,21.30
2018-12-16T08:41:05.337Z,21.17
2018-12-16T08:43:38.644Z,22.33
2018-12-16T08:46:12.290Z,20.37
2018-12-16T08:48:46.765Z,21.13
2018-12-16T08:51:20.063Z,22.73
2018-12-16T08:53:53.611Z,22.07
2018-12-16T08:56:26.980Z,20.73
2018-12-16T08:59:00.451Z,21.40
2018-12-16T09:01:33.862Z,19.50
2018-12-16T09:04:07.538Z,21.07
2018-12-16T09:06:40.971Z,19.43
2018-12-16T09:09:15.326Z,21.63
2018-12-16T09:11:48.758Z,21.43
2018-12-16T09:14:22.284Z,21.07
2018-12-16T09:16:55.974Z,19.87
2018-12-16T09:19:29.523Z,19.47
2018-12-16T09:22:02.975Z,20.90
2018-12-16T09:24:37.623Z,19.60
2018-12-16T09:27:11.078Z,20.63
2018-12-16T09:29:44.510Z,20.07
2018-12-16T09:32:18.217Z,18.40
2018-12-16T09:34:51.638Z,18.83
2018-12-16T09:37:25.188Z,18.77
2018-12-16T09:39:58.917Z,18.27
2018-12-16T09:42:32.740Z,18.30
2018-12-16T09:45:06.510Z,19.27
2018-12-16T09:47:40.381Z,17.97
2018-12-16T09:50:14.178Z,18.83
2018-12-16T09:52:48.525Z,18.73
2018-12-16T09:55:21.988Z,17.67
2018-12-16T09:57:55.506Z,17.50
2018-12-16T10:00:28.994Z,18.70
2018-12-16T10:03:02.502Z,17.43
2018-12-16T10:05:36.201Z,18.57
2018-12-16T10:08:09.888Z,18.47
2018-12-16T10:10:43.505Z,17.73
2018-12-16T10:13:18.235Z,18.73
2018-12-16T10:15:52.001Z,16.43
2018-12-16T10:18:25.634Z,17.13
2018-12-16T10:20:59.263Z,16.87
2018-12-16T10:27:09.391Z,17.43
2018-12-16T10:29:42.885Z,18.33
2018-12-16T10:32:16.237Z,17.93
2018-12-16T10:34:49.521Z,17.73
2018-12-16T10:37:23.030Z,17.97
2018-12-16T10:39:56.310Z,17.13
2018-12-16T10:42:29.794Z,17.30
2018-12-16T10:45:04.623Z,17.13
2018-12-16T10:47:38.040Z,17.83
2018-12-16T10:50:11.876Z,16.37
2018-12-16T10:52:46.493Z,17.30
2018-12-16T10:55:20.123Z,18.17
2018-12-16T10:57:53.341Z,17.23
2018-12-16T11:00:32.804Z,17.47
2018-12-16T11:03:06.378Z,15.47
2018-12-16T11:05:40.238Z,16.00
2018-12-16T11:08:13.949Z,16.93
2018-12-16T11:10:47.593Z,17.33
2018-12-16T11:13:21.205Z,16.50
2018-12-16T11:15:54.569Z,17.23
2018-12-16T11:18:27.923Z,17.30
2018-12-16T11:21:01.506Z,17.53
2018-12-16T11:23:35.026Z,17.40
2018-12-16T11:26:09.854Z,16.63
2018-12-16T11:28:43.638Z,17.67
2018-12-16T11:31:17.376Z,17.57
2018-12-16T11:33:50.696Z,18.00
2018-12-16T11:36:25.115Z,17.70
2018-12-16T11:38:58.819Z,17.57
2018-12-16T11:41:32.590Z,16.53
2018-12-16T11:44:05.983Z,15.87
2018-12-16T11:46:39.539Z,17.17
2018-12-16T11:49:13.119Z,17.23
2018-12-16T11:51:46.905Z,16.53
2018-12-16T11:54:20.569Z,17.50
2018-12-16T11:56:54.191Z,17.57
2018-12-16T11:59:27.655Z,16.37
2018-12-16T12:02:01.264Z,16.30
2018-12-16T12:04:36.704Z,16.70
2018-12-16T12:07:10.130Z,15.97
2018-12-16T12:09:43.606Z,17.73
2018-12-16T12:12:16.964Z,17.10
2018-12-16T12:14:51.512Z,17.10
2018-12-16T12:17:25.503Z,17.60
2018-12-16T12:19:58.819Z,17.93
2018-12-16T12:22:32.381Z,17.63
2018-12-16T12:25:05.896Z,16.47
2018-12-16T12:27:39.529Z,17.17
2018-12-16T12:30:13.270Z,17.37
2018-12-16T12:32:49.133Z,16.83
2018-12-16T12:35:22.351Z,18.50
2018-12-16T12:37:55.872Z,17.83
2018-12-16T12:40:29.462Z,16.67
2018-12-16T12:43:03.104Z,17.20
2018-12-16T12:45:36.628Z,17.20
2018-12-16T12:48:10.043Z,17.47
2018-12-16T12:50:43.385Z,17.57
2018-12-16T12:53:17.029Z,18.37
2018-12-16T12:55:51.497Z,17.10
2018-12-16T12:58:24.788Z,17.70
2018-12-16T13:00:59.489Z,16.87
2018-12-16T13:03:33.064Z,16.03
2018-12-16T13:06:07.489Z,17.47
2018-12-16T13:08:40.922Z,17.70
2018-12-16T13:11:14.507Z,16.90
2018-12-16T13:13:47.811Z,19.30
2018-12-16T13:16:21.275Z,17.47
2018-12-16T13:18:54.823Z,17.23
2018-12-16T13:21:28.271Z,18.63
2018-12-16T13:24:01.495Z,19.63
2018-12-16T13:26:34.997Z,16.40
2018-12-16T13:29:08.561Z,17.33
2018-12-16T13:31:42.170Z,17.67
2018-12-16T13:34:15.518Z,17.90
2018-12-16T13:36:49.189Z,17.67
2018-12-16T13:39:22.867Z,18.00
2018-12-16T13:41:56.533Z,17.00
2018-12-16T13:44:29.986Z,16.67
2018-12-16T13:47:03.833Z,17.97
2018-12-16T13:49:37.126Z,18.53
2018-12-16T13:52:10.690Z,18.20
2018-12-16T13:54:44.154Z,18.70
2018-12-16T13:57:17.558Z,18.47
2018-12-16T13:59:51.051Z,18.63
2018-12-16T14:02:24.694Z,19.50
2018-12-16T14:04:58.087Z,18.73
2018-12-16T14:07:31.525Z,17.77
2018-12-16T14:10:05.354Z,18.37
2018-12-16T14:12:38.726Z,17.87
2018-12-16T14:15:12.151Z,18.47
2018-12-16T14:17:45.836Z,18.20
2018-12-16T14:20:19.686Z,19.23
2018-12-16T14:22:53.379Z,19.43
2018-12-16T14:25:26.946Z,20.40
2018-12-16T14:28:00.592Z,20.33
2018-12-16T14:30:34.174Z,19.20
2018-12-16T14:33:07.674Z,19.70
2018-12-16T14:35:41.261Z,19.40
2018-12-16T14:38:15.269Z,20.00
2018-12-16T14:40:48.674Z,20.20
2018-12-16T14:43:22.013Z,20.60
2018-12-16T14:45:55.518Z,19.57
2018-12-16T14:48:28.805Z,20.07
2018-12-16T14:51:02.694Z,19.63
2018-12-16T14:53:36.153Z,20.80
2018-12-16T14:56:09.892Z,21.73
2018-12-16T14:58:43.377Z,19.63
2018-12-16T15:01:16.739Z,19.13
2018-12-16T15:03:50.238Z,20.43
2018-12-16T15:06:23.766Z,20.93
2018-12-16T15:08:57.540Z,20.40
2018-12-16T15:11:31.144Z,21.07
2018-12-16T15:14:04.681Z,21.10
2018-12-16T15:16:38.361Z,21.07
2018-12-16T15:19:11.705Z,20.40
2018-12-16T15:21:44.864Z,21.00
2018-12-16T15:24:18.225Z,20.87
2018-12-16T15:26:52.694Z,20.30
2018-12-16T15:29:26.038Z,19.33
2018-12-16T15:31:59.537Z,20.93
2018-12-16T15:34:33.018Z,18.37
2018-12-16T15:37:06.497Z,20.17
2018-12-16T15:39:39.958Z,21.37
2018-12-16T15:42:13.309Z,20.87
2018-12-16T15:44:46.798Z,20.83
2018-12-16T15:47:20.182Z,18.83
2018-12-16T15:49:53.894Z,19.53
2018-12-16T15:52:27.484Z,20.53
2018-12-16T15:55:00.784Z,20.20
2018-12-16T15:57:34.386Z,19.73
2018-12-16T16:00:08.237Z,20.00
2018-12-16T16:02:41.806Z,18.50
2018-12-16T16:05:15.271Z,19.90
2018-12-16T16:07:48.723Z,20.07
2018-12-16T16:10:22.294Z,19.90
2018-12-16T16:12:55.816Z,20.03
2018-12-16T16:15:29.181Z,19.33
2018-12-16T16:18:02.825Z,19.77
2018-12-16T16:20:36.082Z,18.90
2018-12-16T16:23:09.956Z,19.67
2018-12-16T16:25:43.485Z,20.80
2018-12-16T16:28:16.954Z,19.77
2018-12-16T16:30:50.401Z,20.30
2018-12-16T16:33:24.370Z,20.50
2018-12-16T16:35:57.913Z,19.60
2018-12-16T16:38:31.230Z,18.53
2018-12-16T16:41:05.035Z,19.83
2018-12-16T16:43:38.427Z,19.97
2018-12-16T16:46:11.919Z,20.07
2018-12-16T16:48:46.357Z,18.37
2018-12-16T16:51:19.949Z,19.60
2018-12-16T16:53:53.706Z,18.67
2018-12-16T16:56:27.298Z,19.03
2018-12-16T16:59:00.691Z,19.20
2018-12-16T17:01:34.182Z,20.00
2018-12-16T17:04:07.734Z,19.67
2018-12-16T17:06:41.408Z,19.80
2018-12-16T17:09:14.889Z,19.37
2018-12-16T17:11:48.222Z,19.67
2018-12-16T17:14:21.721Z,19.90
2018-12-16T17:16:55.376Z,19.67
2018-12-16T17:19:28.921Z,19.50
2018-12-16T17:22:09.784Z,20.33
2018-12-16T17:24:43.281Z,19.90
2018-12-16T17:27:16.578Z,20.57
2018-12-16T17:29:51.241Z,21.10
2018-12-16T17:32:24.878Z,19.83
2018-12-16T17:34:58.267Z,20.07
2018-12-16T17:37:31.597Z,19.90
2018-12-16T17:40:05.221Z,19.93
2018-12-16T17:42:38.651Z,21.03
2018-12-16T17:45:12.466Z,20.20
2018-12-16T17:47:46.361Z,21.40
2018-12-16T17:50:19.761Z,20.27
2018-12-16T17:52:53.198Z,20.63
2018-12-16T17:55:26.805Z,20.67
2018-12-16T17:58:00.095Z,21.33
2018-12-16T18:00:33.733Z,21.10
2018-12-16T18:03:08.137Z,20.87
2018-12-16T18:05:41.862Z,21.90
2018-12-16T18:08:15.396Z,21.50
2018-12-16T18:10:50.136Z,19.70
2018-12-16T18:13:23.738Z,20.03
2018-12-16T18:15:57.336Z,19.33
2018-12-16T18:18:30.783Z,19.90
2018-12-16T18:21:04.458Z,19.07
2018-12-16T18:23:37.868Z,21.70
2018-12-16T18:26:11.161Z,21.47
2018-12-16T18:28:44.635Z,21.00
2018-12-16T18:31:18.099Z,21.87
2018-12-16T18:33:51.549Z,21.87
2018-12-16T18:36:25.046Z,21.97
2018-12-16T18:38:58.435Z,19.90
2018-12-16T18:41:31.810Z,22.33
2018-12-16T18:44:05.170Z,21.17
2018-12-16T18:46:38.673Z,22.57
2018-12-16T18:49:12.086Z,22.00
2018-12-16T18:51:45.657Z,22.37
2018-12-16T18:59:21.089Z,20.87
2018-12-16T19:01:54.471Z,22.00
2018-12-16T19:04:27.907Z,22.10
2018-12-16T19:07:01.498Z,19.90
2018-12-16T19:09:35.104Z,20.93
2018-12-16T19:12:08.730Z,22.00
2018-12-16T19:14:42.771Z,20.60
2018-12-16T19:17:16.217Z,21.67
2018-12-16T19:19:49.828Z,20.63
2018-12-16T19:22:23.428Z,20.90
2018-12-16T19:24:57.320Z,23.03
2018-12-16T19:27:30.791Z,20.77
2018-12-16T19:30:05.521Z,21.50
2018-12-16T19:32:38.941Z,21.67
2018-12-16T19:35:12.490Z,21.60
2018-12-16T19:37:45.900Z,21.10
2018-12-16T19:40:19.335Z,20.03
2018-12-16T19:42:52.914Z,20.27
2018-12-16T19:45:26.571Z,22.27
2018-12-16T19:47:59.962Z,20.83
2018-12-16T19:50:34.070Z,20.27
2018-12-16T19:53:07.680Z,22.67
2018-12-16T19:55:41.124Z,20.47
2018-12-16T19:58:14.758Z,21.53
2018-12-16T20:00:48.450Z,22.47
2018-12-16T20:03:21.975Z,20.70
2018-12-16T20:06:01.335Z,21.30
2018-12-16T20:08:34.882Z,21.27
2018-12-16T20:11:08.403Z,22.27
2018-12-16T20:13:42.100Z,20.97
2018-12-16T20:16:15.915Z,21.43
2018-12-16T20:18:49.351Z,22.17
2018-12-16T20:21:22.944Z,22.10
2018-12-16T20:23:56.263Z,21.70
2018-12-16T20:26:29.703Z,20.97
2018-12-16T20:29:03.520Z,22.20
2018-12-16T20:31:36.943Z,22.50
2018-12-16T20:34:10.388Z,21.90
2018-12-16T20:36:43.983Z,22.30
2018-12-16T20:39:17.605Z,21.40
2018-12-16T20:41:51.133Z,21.43
2018-12-16T20:44:24.635Z,19.90
2018-12-16T20:46:58.200Z,21.47
2018-12-16T20:49:31.803Z,21.90
2018-12-16T20:52:05.568Z,21.50
2018-12-16T20:54:39.994Z,21.67
2018-12-16T20:57:18.843Z,20.63
2018-12-16T20:59:50.704Z,23.37
2018-12-16T21:02:24.634Z,21.30
2018-12-16T21:04:58.406Z,21.03
2018-12-16T21:07:31.742Z,22.27
2018-12-16T21:10:05.873Z,22.07
2018-12-16T21:12:45.340Z,22.07
2018-12-16T21:15:24.879Z,22.40
2018-12-16T21:18:04.199Z,22.40
2018-12-16T21:20:37.898Z,21.93
2018-12-16T21:23:11.332Z,21.17
2018-12-16T21:25:44.926Z,22.70
2018-12-16T21:28:18.363Z,21.13
2018-12-16T21:30:52.090Z,24.27
2018-12-16T21:33:25.514Z,24.30
2018-12-16T21:35:59.103Z,23.23
2018-12-16T21:38:32.517Z,23.50
2018-12-16T21:41:05.918Z,22.77
2018-12-16T21:43:39.371Z,22.80
2018-12-16T21:46:13.271Z,21.90
2018-12-16T21:48:46.746Z,22.87
2018-12-16T21:51:20.641Z,23.03
2018-12-16T21:53:54.195Z,22.93
2018-12-16T21:56:27.583Z,23.23
2018-12-16T21:59:00.961Z,22.47
2018-12-16T22:01:34.377Z,23.83
2018-12-16T22:04:07.886Z,23.30
2018-12-16T22:06:41.609Z,23.60
2018-12-16T22:09:15.451Z,23.43
2018-12-16T22:11:48.962Z,22.53
2018-12-16T22:14:22.603Z,23.13
2018-12-16T22:16:56.132Z,20.90
2018-12-16T22:19:29.578Z,22.70
2018-12-16T22:22:03.166Z,22.60
2018-12-16T22:24:36.864Z,22.80
2018-12-16T22:27:10.361Z,22.20
2018-12-16T22:29:43.858Z,21.97
2018-12-16T22:32:17.678Z,20.67
2018-12-16T22:34:51.025Z,20.23
2018-12-16T22:37:24.596Z,20.53
2018-12-16T22:39:58.182Z,21.60
2018-12-16T22:42:31.643Z,22.87
2018-12-16T22:45:06.694Z,21.67
2018-12-16T22:47:40.207Z,22.57
2018-12-16T22:50:13.553Z,22.73
2018-12-16T22:52:46.994Z,21.90
2018-12-16T22:55:20.581Z,21.90
2018-12-16T22:57:54.155Z,22.20
2018-12-16T23:00:28.021Z,22.07
2018-12-16T23:03:03.537Z,20.37
2018-12-16T23:05:36.876Z,22.73
2018-12-16T23:08:10.943Z,21.57
2018-12-16T23:10:44.456Z,22.97
2018-12-16T23:13:18.107Z,20.63
2018-12-16T23:15:51.640Z,22.13
2018-12-16T23:18:25.467Z,21.83
2018-12-16T23:20:59.808Z,22.27
2018-12-16T23:23:33.307Z,22.07
2018-12-16T23:26:06.933Z,21.07
2018-12-16T23:28:40.370Z,22.43
2018-12-16T23:31:13.870Z,20.40
2018-12-16T23:33:47.316Z,22.33
2018-12-16T23:36:20.790Z,21.40
2018-12-16T23:38:54.432Z,22.77
2018-12-16T23:41:28.065Z,20.80
2018-12-16T23:44:01.578Z,21.27
2018-12-16T23:46:35.002Z,22.17
2018-12-16T23:49:08.255Z,22.93
2018-12-16T23:51:41.859Z,21.10
2018-12-16T23:54:15.181Z,22.47
2018-12-16T23:56:48.474Z,20.37
2018-12-16T23:59:21.958Z,22.83
